Terminal Aerodrome Forecast
Issued by NWS Binghamton, NY

Home | Current Version | Previous Version | Text Only | Print | Product List | Glossary On
Versions: 1 2 3 4 5 6 7 8 9 10 11 12 13 14 15 16 17 18 19 20 21
000
FTUS41 KBGM 241100
TAFAVP
TAF
KAVP 241130Z 2412/2512 34005KT P6SM BKN035
      TEMPO 2412/2413 OVC025
     FM241400 34012KT P6SM BKN050
     FM250000 34005KT P6SM SKC=

USA.gov is the U.S. government's official web portal to all federal, state and local government web resources and services.